Date,TemperatureHighF,TemperatureAvgF,TemperatureLowF,DewpointHighF,DewpointAvgF,DewpointLowF,HumidityHigh,HumidityAvg,HumidityLow,PressureMaxIn,PressureMinIn,WindSpeedMaxMPH,WindSpeedAvgMPH,GustSpeedMaxMPH,PrecipitationSumIn
2013-2-1,14.8,10.8,7.0,10.2,6.8,3.2,92,84,64,29.84,29.55,19,4,19,0.00
2013-2-2,26.1,19.3,13.9,23.6,16.9,10.0,94,90,84,29.72,29.48,8,1,8,0.00
2013-2-3,22.8,18.3,10.9,18.8,13.9,7.6,93,83,71,29.56,29.45,17,2,17,0.00
2013-2-4,28.2,23.6,20.2,23.4,20.8,16.0,95,89,76,29.55,29.35,8,1,8,0.00
2013-2-5,30.9,24.8,10.4,28.8,22.1,8.8,97,89,78,29.52,29.31,12,2,12,0.00
2013-2-6,38.4,30.4,21.3,26.5,22.7,17.2,86,73,54,29.76,29.53,8,0,8,0.21
2013-2-7,42.6,33.7,27.9,33.0,29.7,25.2,98,86,66,29.67,29.33,4,0,4,0.35
2013-2-8,34.6,32.5,28.5,33.7,28.3,23.4,98,84,74,29.86,29.35,17,2,17,0.02
2013-2-9,38.4,28.3,16.0,27.9,23.3,14.7,96,82,64,29.91,29.64,10,0,10,0.00
2013-2-10,48.7,37.0,26.8,46.1,33.6,22.9,97,87,80,29.64,29.06,13,1,13,0.13
2013-2-11,49.9,36.6,30.7,46.5,29.2,23.5,91,74,66,29.49,29.05,26,9,26,0.00
2013-2-12,30.7,28.4,22.0,25.0,23.4,20.2,93,81,75,29.60,29.45,17,3,17,0.00
2013-2-13,46.5,30.6,17.4,34.0,26.1,16.2,98,84,57,29.45,29.22,11,1,11,0.00
2013-2-14,41.7,35.9,30.0,35.5,30.3,22.0,96,80,60,29.45,29.17,20,4,22,0.00
2013-2-15,34.4,28.3,20.5,29.1,21.8,14.9,95,77,63,29.66,29.44,13,2,13,0.00
2013-2-16,26.5,20.5,17.3,18.1,13.1,7.3,90,73,61,29.64,29.58,16,3,16,0.00
2013-2-17,31.0,22.3,16.8,19.0,14.9,9.5,92,75,43,29.71,29.62,11,1,11,0.02
2013-2-18,53.1,38.3,22.3,44.6,31.1,15.7,94,76,60,29.61,28.93,4,2,22,0.18
2013-2-19,44.9,21.3,16.1,43.4,17.4,10.6,95,85,77,29.59,28.93,23,8,25,0.09
2013-2-20,24.4,19.4,15.7,19.6,15.2,10.5,89,83,79,29.83,29.59,17,3,17,0.00
2013-2-21,27.2,25.4,22.5,21.9,20.4,18.6,86,81,75,29.87,29.53,17,2,18,0.00
2013-2-22,34.4,28.2,21.8,33.0,25.5,18.5,95,90,77,29.56,29.33,16,3,16,0.00
2013-2-23,30.0,27.4,26.0,25.0,22.1,18.7,86,80,65,29.46,29.40,15,4,15,0.00
2013-2-24,36.9,28.3,18.3,26.2,22.4,16.1,96,79,61,29.66,29.44,12,2,12,0.10
2013-2-25,41.4,23.8,16.6,29.2,20.7,15.2,97,89,60,29.70,29.64,6,0,6,0.03
2013-2-27,35.9,33.2,32.3,34.3,32.6,31.8,99,98,94,29.14,28.98,3,1,8,0.26
2013-2-28,38.2,34.4,31.4,34.1,32.1,28.1,99,91,83,29.50,29.14,3,2,18,0.00